Time;durP1;ratioP1;P1;durP2;ratioP2;P2;SDS_P1;SDS_P2;PMS_P1;PMS_P2;Temp;Humidity;BMP_temperature;BMP_pressure;BME280_temperature;BME280_humidity;BME280_pressure;Samples;Min_cycle;Max_cycle;Signal;HPM_P1;HPM_P2
2022/07/11 00:01:15;;;;;;;2.13;1.17;;;;;;;22.89;50.49;100980.00;5074882;28;20234;-63
2022/07/11 00:03:40;;;;;;;2.50;1.20;;;;;;;22.89;50.34;100980.00;5074181;28;20185;-63
2022/07/11 00:06:06;;;;;;;2.50;1.07;;;;;;;22.90;50.60;100978.78;5074220;28;20198;-63
2022/07/11 00:08:31;;;;;;;2.20;1.20;;;;;;;22.91;50.45;100968.91;5074543;28;20227;-63
2022/07/11 00:10:57;;;;;;;2.90;1.30;;;;;;;22.91;50.70;100971.78;5074472;28;20183;-63
2022/07/11 00:13:22;;;;;;;2.97;1.00;;;;;;;22.90;50.33;100965.22;5074483;28;20178;-63
2022/07/11 00:15:48;;;;;;;3.70;1.00;;;;;;;22.90;50.21;100965.22;5077439;28;20231;-63
2022/07/11 00:18:13;;;;;;;3.83;1.10;;;;;;;22.89;50.28;100966.44;5094269;28;20217;-63
2022/07/11 00:20:38;;;;;;;2.30;1.10;;;;;;;22.88;50.53;100967.66;5093916;28;20642;-63
2022/07/11 00:23:04;;;;;;;2.20;1.20;;;;;;;22.90;50.10;100970.97;5092601;28;20200;-63
2022/07/11 00:25:29;;;;;;;2.83;1.00;;;;;;;22.89;50.03;100965.59;5084639;28;20608;-63
2022/07/11 00:27:55;;;;;;;3.50;1.20;;;;;;;22.89;50.27;100969.31;5085889;28;20181;-63
2022/07/11 00:30:20;;;;;;;1.83;1.10;;;;;;;22.88;50.21;100967.66;5091140;28;20182;-63
2022/07/11 00:32:47;;;;;;;3.40;1.23;;;;;;;22.88;50.07;100961.06;5091194;28;20178;-63
2022/07/11 00:35:12;;;;;;;3.57;1.40;;;;;;;22.88;50.29;100953.25;5091342;28;20701;-63
2022/07/11 00:37:38;;;;;;;4.97;1.10;;;;;;;22.87;50.28;100948.72;5092097;28;20412;-63
2022/07/11 00:40:04;;;;;;;2.90;1.23;;;;;;;22.86;50.17;100952.81;5093423;28;20179;-63
2022/07/11 00:42:29;;;;;;;2.87;1.23;;;;;;;22.87;50.31;100959.44;5093847;28;20261;-63
2022/07/11 00:44:55;;;;;;;2.00;1.00;;;;;;;22.86;50.36;100952.81;5094145;28;20947;-63
2022/07/11 00:47:20;;;;;;;4.33;1.07;;;;;;;22.85;50.68;100959.81;5094196;28;20182;-63
2022/07/11 00:49:46;;;;;;;3.17;1.77;;;;;;;22.84;50.39;100963.91;5093616;28;20179;-63
2022/07/11 00:52:11;;;;;;;2.00;1.30;;;;;;;22.84;50.65;100957.31;5094382;28;20580;-63
2022/07/11 00:54:37;;;;;;;3.23;1.30;;;;;;;22.83;50.23;100947.84;5093399;28;20182;-63
2022/07/11 00:57:03;;;;;;;2.80;1.23;;;;;;;22.84;50.41;100952.41;5092593;28;20174;-63
2022/07/11 00:59:28;;;;;;;2.63;1.27;;;;;;;22.85;50.07;100950.34;5093303;28;20692;-63
2022/07/11 01:01:54;;;;;;;2.17;1.07;;;;;;;22.83;50.08;100953.59;5094020;28;20424;-63
2022/07/11 01:04:19;;;;;;;1.90;1.10;;;;;;;22.83;50.33;100959.34;5093819;28;20182;-63
2022/07/11 01:06:45;;;;;;;3.83;1.30;;;;;;;22.81;50.15;100944.53;5093486;28;20205;-63
2022/07/11 01:09:10;;;;;;;2.27;1.03;;;;;;;22.82;50.33;100949.06;5093310;28;20689;-63
2022/07/11 01:11:35;;;;;;;3.17;1.60;;;;;;;22.82;50.27;100946.19;5093526;28;20175;-63
2022/07/11 01:14:01;;;;;;;2.10;1.20;;;;;;;22.82;50.06;100940.44;5093440;28;20178;-63
2022/07/11 01:16:26;;;;;;;3.13;1.23;;;;;;;22.81;50.33;100935.91;5092559;28;20178;-63
2022/07/11 01:18:53;;;;;;;1.67;1.10;;;;;;;22.82;50.60;100943.31;5092983;28;20194;-63
2022/07/11 01:21:31;;;;;;;3.03;1.47;;;;;;;22.81;50.83;100935.06;5093532;28;20231;-63
2022/07/11 01:23:59;;;;;;;1.90;1.10;;;;;;;22.81;50.27;100935.91;5093576;28;20420;-63
2022/07/11 01:26:24;;;;;;;2.00;1.10;;;;;;;22.80;50.59;100934.25;5092495;28;20435;-63
2022/07/11 01:28:50;;;;;;;2.93;1.37;;;;;;;22.80;50.26;100937.13;5092903;28;20444;-63
2022/07/11 01:31:15;;;;;;;2.87;1.20;;;;;;;22.80;50.38;100933.41;5092345;28;20664;-63
2022/07/11 01:33:41;;;;;;;2.10;1.20;;;;;;;22.78;50.36;100933.81;5089588;28;20189;-63
2022/07/11 01:36:07;;;;;;;2.50;1.53;;;;;;;22.78;50.11;100930.91;5090250;28;20181;-63
2022/07/11 01:38:32;;;;;;;2.30;1.20;;;;;;;22.78;50.37;100924.34;5091134;28;20194;-63
2022/07/11 01:40:57;;;;;;;2.80;1.47;;;;;;;22.75;50.28;100933.78;5091696;28;20200;-63
2022/07/11 01:43:23;;;;;;;2.40;1.27;;;;;;;22.73;50.44;100925.53;5091627;28;20231;-63
2022/07/11 01:45:52;;;;;;;2.83;1.20;;;;;;;22.72;49.63;100923.88;5091537;28;20178;-63
2022/07/11 01:48:18;;;;;;;5.03;1.53;;;;;;;22.73;50.59;100928.41;5091921;28;20174;-63
2022/07/11 01:50:43;;;;;;;2.30;1.30;;;;;;;22.74;50.62;100927.19;5091203;28;20447;-63
2022/07/11 01:53:08;;;;;;;2.33;1.23;;;;;;;22.73;50.58;100914.00;5091854;28;20537;-63
2022/07/11 01:55:34;;;;;;;3.00;1.37;;;;;;;22.75;50.28;100922.25;5083229;28;20179;-63
2022/07/11 01:57:59;;;;;;;3.30;1.57;;;;;;;22.73;49.96;100925.53;5072398;28;20575;-63
2022/07/11 02:00:25;;;;;;;2.57;1.60;;;;;;;22.72;49.90;100923.88;5072016;28;20171;-63
2022/07/11 02:02:50;;;;;;;2.60;1.43;;;;;;;22.72;50.64;100923.06;5072716;28;20170;-63
2022/07/11 02:05:16;;;;;;;3.17;1.43;;;;;;;22.72;50.14;100921.00;5072308;28;20179;-62
2022/07/11 02:10:29;;;;;;;3.03;1.50;;;;;;;22.71;50.32;100925.09;5072100;28;20567;-62
2022/07/11 02:12:58;;;;;;;3.60;1.70;;;;;;;22.71;50.63;100921.38;5072448;28;20441;-62
2022/07/11 02:15:24;;;;;;;3.13;1.50;;;;;;;22.70;50.34;100922.59;5072133;28;20774;-63
2022/07/11 02:17:50;;;;;;;2.60;1.50;;;;;;;22.70;50.71;100920.56;5072249;28;20468;-63
2022/07/11 02:20:15;;;;;;;3.50;1.57;;;;;;;22.69;50.35;100912.31;5071472;28;20835;-63
2022/07/11 02:22:40;;;;;;;3.70;1.80;;;;;;;22.67;50.00;100920.53;5072243;28;20518;-63
2022/07/11 02:25:06;;;;;;;2.93;1.37;;;;;;;22.66;50.63;100918.84;5071483;28;20194;-63
2022/07/11 02:27:32;;;;;;;2.70;1.30;;;;;;;22.65;50.26;100911.44;5082841;28;20454;-63
2022/07/11 02:29:57;;;;;;;2.57;1.40;;;;;;;22.66;50.43;100924.63;5092034;28;20163;-63
2022/07/11 02:32:22;;;;;;;4.83;1.73;;;;;;;22.67;50.55;100923.41;5092115;28;20622;-62
2022/07/11 02:34:48;;;;;;;3.97;1.60;;;;;;;22.66;50.59;100919.69;5091807;28;20177;-62
2022/07/11 02:37:13;;;;;;;3.50;1.50;;;;;;;22.66;50.51;100919.69;5092269;28;20170;-63
2022/07/11 02:39:39;;;;;;;2.47;1.30;;;;;;;22.66;50.79;100924.63;5091867;28;20194;-62
2022/07/11 02:42:05;;;;;;;4.03;1.53;;;;;;;22.66;50.66;100928.34;5091102;28;20189;-62
2022/07/11 02:44:30;;;;;;;3.23;1.80;;;;;;;22.65;50.68;100923.81;5090504;28;20213;-62
2022/07/11 02:46:56;;;;;;;2.43;1.40;;;;;;;22.66;50.49;100919.69;5092232;28;20416;-62
2022/07/11 02:49:22;;;;;;;3.17;1.83;;;;;;;22.65;50.34;100915.16;5091538;28;20188;-62
2022/07/11 02:51:47;;;;;;;2.77;1.60;;;;;;;22.67;50.33;100917.66;5091906;28;20531;-62
2022/07/11 02:54:12;;;;;;;2.10;1.40;;;;;;;22.66;50.58;100913.94;5091268;28;20174;-63
2022/07/11 02:56:38;;;;;;;2.77;1.47;;;;;;;22.67;50.53;100920.53;5091517;28;20182;-63
2022/07/11 02:59:03;;;;;;;2.40;1.40;;;;;;;22.67;50.53;100921.34;5091279;28;20694;-63
2022/07/11 03:01:29;;;;;;;2.90;1.90;;;;;;;22.66;51.05;100921.72;5091847;28;20185;-63
2022/07/11 03:03:54;;;;;;;4.67;1.50;;;;;;;22.65;50.69;100917.22;5091604;28;20186;-63
2022/07/11 03:06:20;;;;;;;2.80;1.97;;;;;;;22.61;51.01;100920.06;5091266;28;20194;-62
2022/07/11 03:08:45;;;;;;;3.43;1.83;;;;;;;22.59;50.67;100922.50;5090919;28;20229;-63
2022/07/11 03:11:10;;;;;;;4.23;1.83;;;;;;;22.58;50.98;100922.91;5090974;28;20179;-63
2022/07/11 03:13:36;;;;;;;2.23;1.30;;;;;;;22.55;50.72;100924.50;5090607;28;20177;-63
2022/07/11 03:16:01;;;;;;;4.00;1.47;;;;;;;22.55;51.03;100917.91;5089100;28;20181;-63
2022/07/11 03:18:27;;;;;;;2.37;1.40;;;;;;;22.55;51.22;100923.66;5089785;28;20206;-63
2022/07/11 03:20:53;;;;;;;3.60;1.70;;;;;;;22.57;50.96;100915.50;5089152;28;20401;-63
2022/07/11 03:23:18;;;;;;;2.90;1.87;;;;;;;22.57;50.60;100922.06;5089495;28;20246;-63
2022/07/11 03:25:44;;;;;;;3.30;1.30;;;;;;;22.58;51.01;100920.81;5089134;28;20193;-63
2022/07/11 03:28:09;;;;;;;2.57;1.70;;;;;;;22.56;50.74;100920.41;5089682;28;20545;-63
2022/07/11 03:30:35;;;;;;;3.17;1.73;;;;;;;22.55;51.11;100921.63;5091203;28;20572;-63
2022/07/11 03:33:00;;;;;;;4.83;1.80;;;;;;;22.54;50.92;100919.13;5090898;28;20183;-63
2022/07/11 03:35:40;;;;;;;3.23;1.77;;;;;;;22.52;51.49;100922.41;5090507;28;20178;-63
2022/07/11 03:38:06;;;;;;;2.70;1.53;;;;;;;22.54;51.30;100925.75;5090503;28;20198;-63
2022/07/11 03:40:32;;;;;;;2.57;1.87;;;;;;;22.56;51.51;100922.44;5091227;28;20517;-63
2022/07/11 03:42:57;;;;;;;3.23;2.17;;;;;;;22.57;51.24;100919.19;5090145;28;20182;-63
2022/07/11 03:45:22;;;;;;;3.13;1.67;;;;;;;22.58;51.43;100917.94;5090232;28;20170;-63
2022/07/11 03:47:48;;;;;;;2.60;1.47;;;;;;;22.58;51.34;100917.94;5091173;28;20664;-63
2022/07/11 03:50:14;;;;;;;6.17;1.90;;;;;;;22.57;51.31;100922.06;5090579;28;20178;-63
2022/07/11 03:52:40;;;;;;;2.33;1.50;;;;;;;22.56;51.68;100920.41;5090543;28;20178;-63
2022/07/11 03:55:05;;;;;;;4.83;1.83;;;;;;;22.56;51.49;100917.53;5085784;28;20494;-63
2022/07/11 03:57:31;;;;;;;2.33;1.60;;;;;;;22.57;51.42;100921.25;5068559;28;20650;-63
2022/07/11 03:59:56;;;;;;;3.73;1.90;;;;;;;22.56;51.86;100917.53;5068294;28;20428;-63
2022/07/11 04:02:21;;;;;;;3.67;1.80;;;;;;;22.55;51.51;100912.16;5068296;28;20175;-63
2022/07/11 04:04:47;;;;;;;4.20;1.97;;;;;;;22.54;51.94;100917.09;5068636;28;20171;-63
2022/07/11 04:07:13;;;;;;;1.80;1.30;;;;;;;22.53;51.49;100920.38;5068336;28;20218;-63
2022/07/11 04:09:38;;;;;;;3.20;1.77;;;;;;;22.54;51.97;100913.38;5068350;28;20167;-63
2022/07/11 04:12:04;;;;;;;3.30;1.77;;;;;;;22.54;51.86;100922.00;5069904;28;20660;-63
2022/07/11 04:14:29;;;;;;;2.83;1.90;;;;;;;22.53;51.55;100912.53;5069005;28;20194;-63
2022/07/11 04:16:55;;;;;;;4.33;1.73;;;;;;;22.52;51.71;100913.78;5068863;28;20264;-63
2022/07/11 04:19:20;;;;;;;4.63;2.10;;;;;;;22.54;52.19;100913.38;5068671;28;20198;-63
2022/07/11 04:21:46;;;;;;;3.60;1.70;;;;;;;22.54;51.95;100914.22;5067909;28;20547;-63
2022/07/11 04:24:11;;;;;;;3.57;2.40;;;;;;;22.52;51.81;100910.91;5068468;28;20171;-63
2022/07/11 04:26:36;;;;;;;6.50;1.50;;;;;;;22.51;52.15;100906.38;5072139;28;20182;-63
2022/07/11 04:29:02;;;;;;;4.07;1.93;;;;;;;22.50;52.13;100910.47;5089225;28;20178;-63
2022/07/11 04:31:27;;;;;;;2.90;1.90;;;;;;;22.50;51.84;100906.75;5090646;28;20179;-63
2022/07/11 04:33:53;;;;;;;3.63;1.80;;;;;;;22.52;51.86;100912.97;5090063;28;20186;-63
2022/07/11 04:36:18;;;;;;;3.97;2.00;;;;;;;22.54;52.22;100902.72;5090397;28;20179;-63
2022/07/11 04:38:44;;;;;;;2.40;1.70;;;;;;;22.56;52.44;100908.06;5090388;28;20191;-63
2022/07/11 04:41:10;;;;;;;2.70;1.90;;;;;;;22.57;51.74;100903.97;5090284;28;20182;-63
2022/07/11 04:43:36;;;;;;;3.23;2.00;;;;;;;22.59;52.25;100910.16;5090666;28;20199;-63
2022/07/11 04:46:04;;;;;;;3.30;1.93;;;;;;;22.59;51.80;100902.34;5094156;28;20178;-63
2022/07/11 04:48:30;;;;;;;2.73;1.87;;;;;;;22.61;51.75;100905.66;5094453;28;20436;-63
2022/07/11 04:50:56;;;;;;;4.57;2.27;;;;;;;22.63;52.16;100908.97;5093564;28;20416;-63
2022/07/11 04:53:21;;;;;;;4.13;2.03;;;;;;;22.64;52.36;100909.81;5093530;28;20530;-63
2022/07/11 04:55:47;;;;;;;2.47;2.03;;;;;;;22.66;52.32;100908.19;5093792;28;20233;-63
2022/07/11 04:58:12;;;;;;;3.90;2.07;;;;;;;22.68;52.27;100914.34;5093978;28;20198;-63
2022/07/11 05:00:37;;;;;;;2.40;1.87;;;;;;;22.72;51.79;100914.44;5093509;28;20175;-63
2022/07/11 05:03:03;;;;;;;3.87;2.00;;;;;;;22.73;52.01;100913.19;5094060;28;20181;-63
2022/07/11 05:05:28;;;;;;;3.67;2.07;;;;;;;22.73;52.09;100925.53;5093701;28;20535;-63
2022/07/11 05:07:54;;;;;;;3.20;2.07;;;;;;;22.72;51.80;100920.19;5093589;28;20625;-63
2022/07/11 05:10:19;;;;;;;4.87;2.00;;;;;;;22.71;52.04;100909.88;5092626;28;21360;-63
2022/07/11 05:12:45;;;;;;;2.90;1.83;;;;;;;22.71;52.02;100907.81;5093474;28;20520;-63
2022/07/11 05:15:10;;;;;;;2.57;1.60;;;;;;;22.70;52.01;100909.06;5094067;28;20198;-63
2022/07/11 05:17:36;;;;;;;3.40;2.20;;;;;;;22.70;51.97;100909.06;5092775;28;20170;-63
2022/07/11 05:20:01;;;;;;;2.80;1.70;;;;;;;22.68;52.90;100914.34;5093638;28;20202;-63
2022/07/11 05:22:27;;;;;;;2.73;2.03;;;;;;;22.67;52.86;100915.59;5093304;28;20552;-63
2022/07/11 05:24:52;;;;;;;4.53;2.50;;;;;;;22.66;52.49;100922.56;5093582;28;20174;-62
2022/07/11 05:27:18;;;;;;;4.47;2.80;;;;;;;22.67;52.58;100914.78;5092418;28;20182;-62
2022/07/11 05:29:43;;;;;;;3.90;2.53;;;;;;;22.67;53.04;100915.59;5093498;28;20194;-62
2022/07/11 05:32:09;;;;;;;3.67;1.87;;;;;;;22.69;52.66;100918.09;5092998;28;20186;-62
2022/07/11 05:34:35;;;;;;;4.13;2.60;;;;;;;22.67;52.48;100909.84;5092575;28;20166;-62
2022/07/11 05:37:00;;;;;;;3.07;2.17;;;;;;;22.69;53.06;100924.69;5092674;28;20432;-62
2022/07/11 05:39:26;;;;;;;4.70;2.50;;;;;;;22.70;53.20;100920.56;5093147;28;20621;-62
2022/07/11 05:41:51;;;;;;;7.13;2.60;;;;;;;22.68;52.78;100917.25;5092544;28;20633;-62
2022/07/11 05:44:18;;;;;;;7.90;2.10;;;;;;;22.70;53.11;100928.38;5072945;28;20182;-62
2022/07/11 05:46:46;;;;;;;4.60;2.37;;;;;;;22.69;53.21;100923.84;5072179;28;20175;-62
2022/07/11 05:49:12;;;;;;;4.40;2.87;;;;;;;22.69;53.23;100924.69;5072891;28;20408;-62
2022/07/11 05:51:38;;;;;;;4.30;2.53;;;;;;;22.70;52.71;100932.09;5072452;28;20890;-62
2022/07/11 05:54:03;;;;;;;3.37;1.97;;;;;;;22.68;52.87;100925.06;5072397;28;20412;-62
2022/07/11 05:56:29;;;;;;;6.00;2.30;;;;;;;22.68;53.32;100927.94;5087958;28;20190;-62
2022/07/11 05:58:55;;;;;;;6.23;2.70;;;;;;;22.66;53.69;100925.47;5093113;28;20198;-62
2022/07/11 06:01:21;;;;;;;3.83;2.90;;;;;;;22.68;53.06;100925.88;5092814;28;20966;-62
2022/07/11 06:03:47;;;;;;;4.50;2.57;;;;;;;22.66;53.35;100928.34;5091419;28;20194;-62
2022/07/11 06:06:12;;;;;;;3.40;2.67;;;;;;;22.62;53.98;100924.56;5090199;28;20988;-62
2022/07/11 06:08:41;;;;;;;4.67;2.63;;;;;;;22.64;53.18;100929.94;5090914;28;20226;-62
2022/07/11 06:11:07;;;;;;;5.40;2.83;;;;;;;22.68;53.61;100931.63;5090971;28;20221;-62
2022/07/11 06:13:32;;;;;;;3.20;2.10;;;;;;;22.71;53.51;100922.22;5090769;28;20464;-62
2022/07/11 06:15:58;;;;;;;3.10;2.27;;;;;;;22.74;53.34;100930.09;5091496;28;20788;-62
2022/07/11 06:18:23;;;;;;;3.40;2.20;;;;;;;22.67;53.68;100927.09;5091625;28;20537;-62
2022/07/11 06:20:50;;;;;;;3.43;2.20;;;;;;;22.65;53.58;100926.69;5092312;28;20213;-62
2022/07/11 06:23:16;;;;;;;4.90;2.53;;;;;;;22.61;54.25;100931.56;5091794;28;20475;-62
2022/07/11 06:25:41;;;;;;;6.33;2.63;;;;;;;22.63;53.82;100931.19;5092441;28;20268;-62
2022/07/11 06:28:07;;;;;;;5.37;2.93;;;;;;;22.60;54.48;100926.19;5091609;28;20182;-62
2022/07/11 06:30:32;;;;;;;4.30;2.50;;;;;;;22.62;54.15;100936.09;5092322;28;20497;-62
2022/07/11 06:32:58;;;;;;;5.23;2.73;;;;;;;22.53;54.55;100935.56;5092543;28;20178;-62
2022/07/11 06:35:23;;;;;;;3.90;2.80;;;;;;;22.49;54.59;100933.88;5092089;28;20182;-62
2022/07/11 06:37:49;;;;;;;4.00;2.40;;;;;;;22.55;54.35;100933.16;5092178;28;20816;-62
2022/07/11 06:40:17;;;;;;;4.90;2.67;;;;;;;22.47;54.70;100925.63;5091776;28;20210;-62
2022/07/11 06:42:42;;;;;;;7.60;2.87;;;;;;;22.48;54.98;100924.41;5091756;28;20212;-62
2022/07/11 06:45:08;;;;;;;5.00;2.60;;;;;;;22.50;54.64;100927.75;5091330;28;20420;-62
2022/07/11 06:47:34;;;;;;;4.37;2.80;;;;;;;22.35;55.18;100920.13;5091789;28;20189;-62
2022/07/11 06:49:59;;;;;;;4.03;2.10;;;;;;;22.40;54.51;100928.41;5089636;28;20187;-62
2022/07/11 06:52:25;;;;;;;4.70;2.37;;;;;;;22.53;54.31;100929.00;5089770;28;20186;-62
2022/07/11 06:54:50;;;;;;;5.40;2.43;;;;;;;22.49;54.40;100928.13;5087042;28;20178;-62
2022/07/11 06:57:15;;;;;;;5.10;2.30;;;;;;;22.51;54.65;100926.50;5069640;28;20175;-62
2022/07/11 06:59:41;;;;;;;5.70;2.70;;;;;;;22.49;55.03;100922.38;5070076;28;20206;-62
2022/07/11 07:02:06;;;;;;;4.20;2.70;;;;;;;22.43;54.99;100930.47;5071051;28;20163;-62
2022/07/11 07:04:32;;;;;;;10.70;2.80;;;;;;;22.35;55.69;100925.03;5070740;28;20642;-62
2022/07/11 07:06:59;;;;;;;5.90;3.07;;;;;;;22.51;54.55;100917.88;5081955;28;20663;-62
2022/07/11 07:09:26;;;;;;;5.50;2.53;;;;;;;22.46;55.64;100920.25;5091563;28;20275;-62
2022/07/11 07:11:51;;;;;;;5.07;2.67;;;;;;;22.37;55.48;100917.66;5091297;28;20435;-62
2022/07/11 07:14:17;;;;;;;5.47;2.67;;;;;;;22.52;54.60;100915.84;5091070;28;20844;-62
2022/07/11 07:16:42;;;;;;;7.70;2.50;;;;;;;22.52;55.03;100919.53;5091392;28;20617;-62
2022/07/11 07:19:08;;;;;;;7.60;2.63;;;;;;;22.37;55.64;100911.09;5091495;28;20206;-62
2022/07/11 07:21:33;;;;;;;10.03;2.50;;;;;;;22.39;55.37;100915.25;5090780;28;20265;-62
2022/07/11 07:23:58;;;;;;;4.80;2.47;;;;;;;22.41;55.58;100912.78;5090324;28;20170;-62
2022/07/11 07:26:24;;;;;;;5.57;2.60;;;;;;;22.49;54.89;100913.72;5091355;28;20548;-62
2022/07/11 07:28:50;;;;;;;5.57;2.97;;;;;;;22.34;55.29;100911.88;5090287;28;20175;-62
2022/07/11 07:31:15;;;;;;;4.57;2.70;;;;;;;22.46;54.74;100909.59;5089888;28;20591;-62
2022/07/11 07:33:41;;;;;;;4.97;2.50;;;;;;;22.40;55.60;100902.50;5089354;28;20595;-62
2022/07/11 07:36:07;;;;;;;7.53;2.50;;;;;;;22.48;54.91;100915.78;5089451;28;20520;-62
2022/07/11 07:38:32;;;;;;;5.00;2.60;;;;;;;22.35;55.82;100910.66;5089348;28;20224;-62
2022/07/11 07:40:57;;;;;;;3.40;2.03;;;;;;;22.44;55.19;100917.81;5088827;28;20175;-62
2022/07/11 07:43:23;;;;;;;4.20;2.17;;;;;;;22.47;55.05;100911.25;5089429;28;20182;-62
2022/07/11 07:45:48;;;;;;;5.50;2.77;;;;;;;22.54;55.12;100913.38;5090614;28;20649;-62
2022/07/11 07:48:14;;;;;;;6.20;2.30;;;;;;;22.49;55.80;100907.97;5090985;28;20179;-62
2022/07/11 07:50:39;;;;;;;6.43;2.70;;;;;;;22.53;55.64;100917.50;5090550;28;20193;-62
2022/07/11 07:53:04;;;;;;;5.83;2.40;;;;;;;22.53;55.21;100906.78;5090866;28;20677;-62
2022/07/11 07:55:30;;;;;;;5.70;2.63;;;;;;;22.52;55.27;100908.00;5082306;28;20183;-62
2022/07/11 07:57:55;;;;;;;7.10;2.57;;;;;;;22.54;55.08;100911.34;5069056;28;20178;-62
2022/07/11 08:03:08;;;;;;;5.63;2.63;;;;;;;22.51;55.11;100903.50;5069232;28;20205;-62
2022/07/11 08:05:34;;;;;;;8.17;2.90;;;;;;;22.50;55.80;100907.59;5069102;28;20952;-62
2022/07/11 08:08:00;;;;;;;6.47;2.73;;;;;;;22.58;54.99;100906.44;5069238;28;20465;-62
2022/07/11 08:10:25;;;;;;;5.80;2.17;;;;;;;22.53;55.18;100906.78;5068602;28;20262;-62
2022/07/11 08:12:51;;;;;;;7.50;2.37;;;;;;;22.53;55.39;100909.66;5069077;28;20281;-61
2022/07/11 08:15:16;;;;;;;6.27;3.47;;;;;;;22.50;55.07;100904.72;5069080;28;20174;-61
2022/07/11 08:17:41;;;;;;;5.60;3.33;;;;;;;22.54;55.16;100910.50;5068608;28;20163;-61
2022/07/11 08:20:07;;;;;;;7.10;2.70;;;;;;;22.57;55.64;100899.03;5072509;28;20202;-61
2022/07/11 08:22:33;;;;;;;8.57;3.00;;;;;;;22.60;55.54;100894.53;5072883;28;20258;-61
2022/07/11 08:24:58;;;;;;;6.17;3.10;;;;;;;22.66;54.89;100904.47;5072888;28;20645;-62
2022/07/11 08:27:24;;;;;;;4.60;2.47;;;;;;;22.67;54.70;100903.25;5082997;28;20175;-62
2022/07/11 08:29:49;;;;;;;4.20;2.40;;;;;;;22.68;55.29;100905.72;5091336;28;20174;-62
2022/07/11 08:32:15;;;;;;;6.23;3.00;;;;;;;22.69;54.81;100903.69;5091160;28;20268;-62
2022/07/11 08:34:40;;;;;;;5.07;2.40;;;;;;;22.69;54.80;100901.66;5090934;28;20640;-62
2022/07/11 08:37:05;;;;;;;5.40;2.50;;;;;;;22.71;55.16;100899.19;5090915;28;20223;-62
2022/07/11 08:39:31;;;;;;;5.93;2.30;;;;;;;22.68;54.69;100893.41;5092765;28;20198;-62
2022/07/11 08:41:56;;;;;;;5.50;2.80;;;;;;;22.70;54.96;100897.53;5094416;28;20621;-62
2022/07/11 08:44:22;;;;;;;8.50;2.50;;;;;;;22.68;54.96;100891.34;5092758;28;20554;-62
2022/07/11 08:46:48;;;;;;;6.37;2.50;;;;;;;22.70;55.15;100891.78;5090532;28;20178;-62
2022/07/11 08:49:13;;;;;;;6.00;2.60;;;;;;;22.72;54.84;100883.56;5092533;28;20170;-62
2022/07/11 08:51:38;;;;;;;4.77;2.20;;;;;;;22.72;54.70;100886.44;5092855;28;20186;-62
2022/07/11 08:54:04;;;;;;;4.20;2.17;;;;;;;22.73;54.71;100890.97;5092045;28;20186;-62
2022/07/11 08:56:30;;;;;;;3.80;2.00;;;;;;;22.76;54.26;100878.69;5092601;28;20178;-62
2022/07/11 08:58:55;;;;;;;8.77;2.80;;;;;;;22.80;54.19;100885.31;5093110;28;20194;-62
2022/07/11 09:01:29;;;;;;;6.83;2.97;;;;;;;22.80;54.37;100884.47;5092807;28;20428;-62
2022/07/11 09:03:55;;;;;;;5.43;2.50;;;;;;;22.83;53.57;100880.81;5093626;28;20183;-62
2022/07/11 09:06:20;;;;;;;4.57;2.60;;;;;;;22.83;54.25;100883.69;5093489;28;20432;-62
2022/07/11 09:08:46;;;;;;;6.93;2.53;;;;;;;22.83;54.41;100875.84;5093105;28;20218;-62
2022/07/11 09:11:12;;;;;;;10.00;2.60;;;;;;;22.84;53.42;100882.47;5093622;28;20224;-62
2022/07/11 09:13:37;;;;;;;7.70;2.67;;;;;;;22.83;53.36;100886.56;5093699;28;20195;-62
2022/07/11 09:16:06;;;;;;;6.23;2.10;;;;;;;22.79;53.36;100880.78;5093732;28;20574;-62
2022/07/11 09:18:37;;;;;;;6.20;1.93;;;;;;;22.86;53.65;100892.34;5093484;28;20198;-62
2022/07/11 09:26:37;;;;;;;5.90;2.40;;;;;;;22.81;52.97;100886.97;5091634;28;20443;-62
2022/07/11 09:29:13;;;;;;;7.90;2.90;;;;;;;22.83;53.35;100887.38;5091742;28;20401;-62
2022/07/11 09:31:39;;;;;;;5.67;2.10;;;;;;;22.82;53.37;100882.84;5091648;28;20436;-62
2022/07/11 09:34:09;;;;;;;16.23;2.77;;;;;;;22.81;53.31;100881.19;5091865;28;20415;-62
2022/07/11 09:36:44;;;;;;;16.13;2.57;;;;;;;22.78;53.49;100887.72;5091358;28;20456;-62
2022/07/11 09:39:20;;;;;;;5.93;2.20;;;;;;;22.79;53.53;100886.53;5092427;28;20459;-62
2022/07/11 09:41:46;;;;;;;17.53;2.60;;;;;;;22.87;52.93;100891.13;5092704;28;20463;-62
2022/07/11 09:44:13;;;;;;;10.10;2.90;;;;;;;22.90;52.88;100898.97;5092890;28;20412;-62
2022/07/11 09:46:40;;;;;;;8.90;2.83;;;;;;;22.92;52.99;100884.19;5092568;28;20416;-62
2022/07/11 09:49:06;;;;;;;4.47;2.00;;;;;;;22.93;53.54;100878.00;5092859;28;20458;-62
2022/07/11 09:51:32;;;;;;;3.10;2.00;;;;;;;22.92;53.34;100882.13;5093203;28;20431;-62
2022/07/11 09:53:58;;;;;;;4.00;2.40;;;;;;;22.91;52.78;100876.75;5074476;28;20417;-62
2022/07/11 09:56:34;;;;;;;3.97;2.30;;;;;;;22.90;53.10;100884.59;5076951;28;20417;-62
2022/07/11 09:59:03;;;;;;;6.40;2.67;;;;;;;22.90;53.54;100878.81;5072819;28;20190;-62
2022/07/11 10:01:29;;;;;;;4.40;2.20;;;;;;;22.92;53.78;100873.47;5072203;28;20417;-62
2022/07/11 10:03:54;;;;;;;4.40;2.50;;;;;;;22.94;53.23;100881.72;5072270;28;20410;-62
2022/07/11 10:06:21;;;;;;;5.10;2.63;;;;;;;22.95;52.75;100881.34;5072993;28;20249;-62
2022/07/11 10:08:48;;;;;;;7.23;2.60;;;;;;;22.96;52.80;100876.38;5071731;28;20305;-62
2022/07/11 10:11:13;;;;;;;5.83;2.30;;;;;;;22.95;52.97;100881.34;5072156;28;20433;-62
2022/07/11 10:13:39;;;;;;;5.47;2.33;;;;;;;22.99;52.88;100884.25;5072442;28;20421;-62
2022/07/11 10:16:25;;;;;;;3.40;2.37;;;;;;;22.99;52.62;100875.59;5071889;28;20540;-62
2022/07/11 10:19:12;;;;;;;3.10;2.13;;;;;;;23.00;52.91;100885.91;5072050;28;20875;-62
2022/07/11 10:21:48;;;;;;;4.70;2.57;;;;;;;23.05;53.16;100874.84;5071578;28;20424;-62
2022/07/11 10:24:58;;;;;;;4.80;2.20;;;;;;;23.10;52.91;100876.53;5070773;28;20424;-62
2022/07/11 10:27:58;;;;;;;6.17;2.50;;;;;;;23.11;52.74;100879.00;5057812;28;20794;-62
2022/07/11 10:30:45;;;;;;;5.37;2.80;;;;;;;23.13;52.62;100881.50;5050999;28;20409;-62
2022/07/11 10:33:10;;;;;;;7.50;2.63;;;;;;;23.12;52.61;100874.91;5088085;28;20474;-62
2022/07/11 10:35:37;;;;;;;9.83;2.40;;;;;;;23.15;51.85;100879.88;5090431;28;20430;-62
2022/07/11 10:38:05;;;;;;;3.50;2.53;;;;;;;23.14;52.21;100872.44;5072277;28;20285;-62
2022/07/11 10:40:50;;;;;;;3.37;2.30;;;;;;;23.22;52.17;100882.00;5091674;28;20515;-62
2022/07/11 10:43:38;;;;;;;2.63;1.87;;;;;;;23.23;51.80;100875.03;5091577;28;20412;-62
2022/07/11 10:46:18;;;;;;;4.13;2.70;;;;;;;23.22;52.05;100870.47;5091812;28;20884;-64
2022/07/11 10:49:15;;;;;;;3.97;2.20;;;;;;;23.24;51.98;100883.25;5091753;28;20952;-62
2022/07/11 10:51:41;;;;;;;4.07;2.27;;;;;;;23.27;52.07;100881.63;5090871;28;20733;-62
2022/07/11 10:54:26;;;;;;;5.40;2.23;;;;;;;23.26;51.39;100872.19;5091625;28;20598;-62
2022/07/11 10:57:10;;;;;;;4.77;2.43;;;;;;;23.29;51.64;100879.19;5083311;28;20527;-62
2022/07/11 10:59:56;;;;;;;4.40;2.50;;;;;;;23.27;51.12;100873.81;5091592;28;20448;-62
2022/07/11 11:02:21;;;;;;;4.10;2.50;;;;;;;23.26;51.48;100869.31;5090064;28;20404;-62
2022/07/11 11:04:48;;;;;;;4.07;2.27;;;;;;;23.24;51.30;100874.63;5089946;28;20946;-62
2022/07/11 11:07:35;;;;;;;3.60;2.63;;;;;;;23.26;51.03;100879.97;5090911;28;20190;-62
2022/07/11 11:10:06;;;;;;;4.93;2.53;;;;;;;23.23;51.42;100870.09;5091470;28;20404;-62
2022/07/11 11:13:06;;;;;;;4.30;2.47;;;;;;;23.26;51.27;100868.47;5090862;28;21080;-62
2022/07/11 11:15:44;;;;;;;6.03;2.50;;;;;;;23.29;51.65;100877.13;5071032;28;20378;-62
2022/07/11 11:18:22;;;;;;;4.10;2.90;;;;;;;23.31;51.89;100865.19;5071551;28;20428;-62
2022/07/11 11:21:09;;;;;;;4.73;2.37;;;;;;;23.34;52.09;100856.59;5070724;28;20428;-62
2022/07/11 11:23:38;;;;;;;5.10;3.10;;;;;;;23.36;51.33;100856.19;5067098;28;20800;-62
2022/07/11 11:26:04;;;;;;;4.10;2.37;;;;;;;23.34;51.08;100855.78;5083662;28;20424;-62
2022/07/11 11:28:29;;;;;;;5.30;2.70;;;;;;;23.35;51.85;100849.63;5091565;28;20515;-62
2022/07/11 11:30:56;;;;;;;3.43;2.80;;;;;;;23.43;52.39;100847.63;5088653;28;20182;-62
2022/07/11 11:33:21;;;;;;;3.43;2.70;;;;;;;23.40;51.91;100848.41;5090681;28;20182;-62
2022/07/11 11:36:09;;;;;;;3.33;2.30;;;;;;;23.48;51.90;100848.03;5088685;28;20842;-62